Time;durP1;ratioP1;P1;durP2;ratioP2;P2;SDS_P1;SDS_P2;PMS_P1;PMS_P2;Temp;Humidity;BMP_temperature;BMP_pressure;BME280_temperature;BME280_humidity;BME280_pressure;Samples;Min_cycle;Max_cycle;Signal;HPM_P1;HPM_P2
2024/01/27 00:00:14;;;;;;;11.93;3.97;;;;;;;;;;684002;28;2306;-71
2024/01/27 00:00:34;;;;;;;9.85;3.78;;;;;;;;;;684693;28;1283;-68
2024/01/27 00:00:55;;;;;;;12.00;4.23;;;;;;;;;;684951;28;1330;-72
2024/01/27 00:01:15;;;;;;;11.68;3.90;;;;;;;;;;683781;28;4368;-68
2024/01/27 00:01:35;;;;;;;12.03;3.90;;;;;;;;;;682135;28;1252;-70
2024/01/27 00:01:56;;;;;;;8.82;3.60;;;;;;;;;;684594;28;1682;-71
2024/01/27 00:02:16;;;;;;;9.30;3.60;;;;;;;;;;685667;28;1681;-71
2024/01/27 00:02:37;;;;;;;9.90;3.83;;;;;;;;;;686227;28;1341;-69
2024/01/27 00:02:57;;;;;;;9.93;3.73;;;;;;;;;;684247;28;1845;-70
2024/01/27 00:03:17;;;;;;;11.03;3.77;;;;;;;;;;685584;28;1239;-70
2024/01/27 00:03:38;;;;;;;9.87;3.60;;;;;;;;;;686254;28;1263;-70
2024/01/27 00:03:58;;;;;;;9.70;3.80;;;;;;;;;;681317;28;2300;-72
2024/01/27 00:04:19;;;;;;;10.83;4.00;;;;;;;;;;685071;28;4552;-71
2024/01/27 00:04:39;;;;;;;12.90;3.95;;;;;;;;;;684830;28;988;-70
2024/01/27 00:04:59;;;;;;;11.20;3.63;;;;;;;;;;684114;28;1721;-69
2024/01/27 00:05:20;;;;;;;10.87;3.63;;;;;;;;;;685464;28;1260;-70
2024/01/27 00:05:41;;;;;;;10.43;3.60;;;;;;;;;;681778;28;1386;-70
2024/01/27 00:06:02;;;;;;;10.45;3.60;;;;;;;;;;684391;28;1446;-71
2024/01/27 00:06:22;;;;;;;10.80;3.65;;;;;;;;;;682290;28;1300;-70
2024/01/27 00:06:43;;;;;;;11.35;3.80;;;;;;;;;;681521;28;1327;-71
2024/01/27 00:07:04;;;;;;;12.07;3.92;;;;;;;;;;680629;28;2314;-69
2024/01/27 00:07:27;;;;;;;12.70;3.80;;;;;;;;;;681605;28;4302;-69
2024/01/27 00:07:48;;;;;;;12.45;3.78;;;;;;;;;;684390;28;1413;-71
2024/01/27 00:08:09;;;;;;;9.13;3.33;;;;;;;;;;683879;28;1971;-71
2024/01/27 00:08:33;;;;;;;9.32;3.50;;;;;;;;;;685164;28;1507;-70
2024/01/27 00:08:54;;;;;;;8.57;3.25;;;;;;;;;;685131;28;1263;-71
2024/01/27 00:09:15;;;;;;;8.55;3.30;;;;;;;;;;684191;28;1714;-71
2024/01/27 00:09:36;;;;;;;10.40;3.65;;;;;;;;;;685529;28;4177;-70
2024/01/27 00:09:59;;;;;;;11.57;3.70;;;;;;;;;;680969;28;1795;-72
2024/01/27 00:10:19;;;;;;;12.55;3.42;;;;;;;;;;682194;28;4394;-71
2024/01/27 00:10:40;;;;;;;11.13;3.23;;;;;;;;;;685327;28;1338;-71
2024/01/27 00:11:00;;;;;;;11.38;3.22;;;;;;;;;;683989;28;1824;-70
2024/01/27 00:11:23;;;;;;;11.10;3.50;;;;;;;;;;687743;28;1317;-70
2024/01/27 00:11:43;;;;;;;10.30;3.38;;;;;;;;;;689813;28;1290;-68
2024/01/27 00:12:04;;;;;;;9.45;3.20;;;;;;;;;;688141;28;2275;-70
2024/01/27 00:12:24;;;;;;;10.67;3.70;;;;;;;;;;690249;28;1256;-69
2024/01/27 00:12:45;;;;;;;10.27;3.67;;;;;;;;;;689106;28;1239;-70
2024/01/27 00:13:05;;;;;;;11.20;3.33;;;;;;;;;;688760;28;1747;-70
2024/01/27 00:13:25;;;;;;;9.43;3.60;;;;;;;;;;688008;28;4280;-70
2024/01/27 00:13:46;;;;;;;9.60;3.60;;;;;;;;;;684957;28;1271;-69
2024/01/27 00:14:06;;;;;;;11.97;3.57;;;;;;;;;;683574;28;1385;-70
2024/01/27 00:14:27;;;;;;;13.00;3.58;;;;;;;;;;686754;28;1275;-70
2024/01/27 00:14:47;;;;;;;11.93;3.40;;;;;;;;;;682481;28;1296;-71
2024/01/27 00:15:08;;;;;;;9.67;3.37;;;;;;;;;;680935;28;2235;-71
2024/01/27 00:15:29;;;;;;;11.43;3.50;;;;;;;;;;683249;28;1506;-71
2024/01/27 00:15:49;;;;;;;12.35;3.67;;;;;;;;;;682850;28;1292;-69
2024/01/27 00:16:09;;;;;;;13.07;3.67;;;;;;;;;;680816;28;2189;-71
2024/01/27 00:16:30;;;;;;;10.50;3.63;;;;;;;;;;684999;28;4296;-69
2024/01/27 00:16:50;;;;;;;12.02;3.80;;;;;;;;;;684775;28;782;-70
2024/01/27 00:17:10;;;;;;;12.80;3.40;;;;;;;;;;686222;28;1950;-69
2024/01/27 00:17:31;;;;;;;10.52;3.50;;;;;;;;;;686917;28;1643;-70
2024/01/27 00:17:51;;;;;;;10.47;3.90;;;;;;;;;;687817;28;1317;-70
2024/01/27 00:18:12;;;;;;;8.47;3.30;;;;;;;;;;689466;28;1753;-71
2024/01/27 00:18:32;;;;;;;9.30;3.30;;;;;;;;;;690546;28;1366;-69
2024/01/27 00:18:52;;;;;;;10.10;3.33;;;;;;;;;;691307;28;1230;-71
2024/01/27 00:19:12;;;;;;;10.85;3.17;;;;;;;;;;689156;28;4460;-67
2024/01/27 00:19:33;;;;;;;10.63;3.37;;;;;;;;;;689991;28;1365;-71
2024/01/27 00:19:54;;;;;;;11.48;3.42;;;;;;;;;;690643;28;1294;-70
2024/01/27 00:20:14;;;;;;;12.10;3.63;;;;;;;;;;689541;28;1684;-69
2024/01/27 00:20:34;;;;;;;11.27;3.33;;;;;;;;;;690337;28;1393;-69
2024/01/27 00:20:55;;;;;;;11.20;3.17;;;;;;;;;;689727;28;1263;-72
2024/01/27 00:21:15;;;;;;;9.02;3.17;;;;;;;;;;686763;28;2155;-70
2024/01/27 00:21:35;;;;;;;9.87;3.50;;;;;;;;;;690030;28;1537;-70
2024/01/27 00:21:56;;;;;;;9.57;3.17;;;;;;;;;;690403;28;1324;-71
2024/01/27 00:22:17;;;;;;;12.07;3.40;;;;;;;;;;689829;28;4372;-71
2024/01/27 00:22:37;;;;;;;11.98;3.60;;;;;;;;;;690143;28;928;-71
2024/01/27 00:22:57;;;;;;;9.10;3.60;;;;;;;;;;689467;28;1201;-71
2024/01/27 00:23:18;;;;;;;11.25;3.40;;;;;;;;;;690203;28;1330;-71
2024/01/27 00:23:38;;;;;;;9.53;3.20;;;;;;;;;;688431;28;1246;-71
2024/01/27 00:24:00;;;;;;;11.32;3.17;;;;;;;;;;687617;28;1747;-71
2024/01/27 00:24:21;;;;;;;10.55;3.45;;;;;;;;;;688785;28;1112;-70
2024/01/27 00:24:41;;;;;;;9.90;3.67;;;;;;;;;;688485;28;1315;-71
2024/01/27 00:25:01;;;;;;;8.30;3.38;;;;;;;;;;687652;28;2294;-70
2024/01/27 00:25:22;;;;;;;9.73;3.37;;;;;;;;;;688913;28;4407;-70
2024/01/27 00:25:42;;;;;;;11.45;3.30;;;;;;;;;;687746;28;1226;-71
2024/01/27 00:26:03;;;;;;;9.23;3.10;;;;;;;;;;687497;28;1997;-71
2024/01/27 00:26:23;;;;;;;8.57;3.03;;;;;;;;;;687662;28;1338;-72
2024/01/27 00:26:44;;;;;;;10.97;3.50;;;;;;;;;;684850;28;1454;-70
2024/01/27 00:27:04;;;;;;;12.50;3.50;;;;;;;;;;684680;28;2404;-71
2024/01/27 00:27:24;;;;;;;11.97;3.30;;;;;;;;;;685327;28;1342;-71
2024/01/27 00:27:45;;;;;;;10.68;3.40;;;;;;;;;;684651;28;1287;-68
2024/01/27 00:28:05;;;;;;;10.67;3.40;;;;;;;;;;683978;28;1959;-71
2024/01/27 00:28:26;;;;;;;9.73;3.35;;;;;;;;;;686634;28;4375;-71
2024/01/27 00:28:46;;;;;;;9.57;3.33;;;;;;;;;;689513;28;1316;-69
2024/01/27 00:29:06;;;;;;;9.15;3.60;;;;;;;;;;686453;28;2361;-71
2024/01/27 00:29:27;;;;;;;11.57;4.20;;;;;;;;;;688135;28;1262;-70
2024/01/27 00:29:47;;;;;;;10.67;4.27;;;;;;;;;;688741;28;1356;-69
2024/01/27 00:30:08;;;;;;;12.40;3.63;;;;;;;;;;687602;28;1151;-69
2024/01/27 00:30:28;;;;;;;12.27;3.43;;;;;;;;;;688054;28;1258;-68
2024/01/27 00:30:49;;;;;;;10.10;3.03;;;;;;;;;;687948;28;1357;-67
2024/01/27 00:31:09;;;;;;;12.07;3.20;;;;;;;;;;687395;28;1955;-70
2024/01/27 00:31:29;;;;;;;12.87;3.30;;;;;;;;;;687486;28;4392;-72
2024/01/27 00:31:50;;;;;;;12.97;3.90;;;;;;;;;;687140;28;1475;-69
2024/01/27 00:32:11;;;;;;;13.35;4.25;;;;;;;;;;686944;28;1456;-71
2024/01/27 00:32:33;;;;;;;12.60;3.70;;;;;;;;;;687283;28;1500;-70
2024/01/27 00:32:54;;;;;;;10.00;3.72;;;;;;;;;;686946;28;1333;-70
2024/01/27 00:33:14;;;;;;;10.57;3.57;;;;;;;;;;683754;28;1822;-70
2024/01/27 00:33:36;;;;;;;10.53;3.93;;;;;;;;;;685556;28;1275;-69
2024/01/27 00:33:56;;;;;;;9.60;3.85;;;;;;;;;;685206;28;1251;-69
2024/01/27 00:34:17;;;;;;;13.32;3.78;;;;;;;;;;686383;28;4705;-67
2024/01/27 00:34:37;;;;;;;12.47;3.57;;;;;;;;;;687200;28;1239;-69
2024/01/27 00:34:58;;;;;;;10.63;3.53;;;;;;;;;;686308;28;2246;-72
2024/01/27 00:35:18;;;;;;;12.07;3.60;;;;;;;;;;687421;28;1130;-69
2024/01/27 00:35:38;;;;;;;10.50;3.80;;;;;;;;;;687930;28;1255;-69
2024/01/27 00:35:59;;;;;;;9.10;3.30;;;;;;;;;;687110;28;1495;-69
2024/01/27 00:36:20;;;;;;;11.25;3.33;;;;;;;;;;687201;28;1156;-68
2024/01/27 00:36:42;;;;;;;10.50;3.60;;;;;;;;;;687849;28;1417;-68
2024/01/27 00:37:02;;;;;;;13.23;3.70;;;;;;;;;;685216;28;1910;-70
2024/01/27 00:37:23;;;;;;;11.57;3.80;;;;;;;;;;687425;28;4600;-71
2024/01/27 00:37:43;;;;;;;11.43;4.10;;;;;;;;;;687697;28;1293;-70
2024/01/27 00:38:04;;;;;;;12.23;3.83;;;;;;;;;;686994;28;2264;-70
2024/01/27 00:38:24;;;;;;;10.05;3.30;;;;;;;;;;687874;28;1285;-70
2024/01/27 00:38:44;;;;;;;11.10;3.40;;;;;;;;;;687663;28;1286;-70
2024/01/27 00:39:05;;;;;;;9.85;3.28;;;;;;;;;;686589;28;2390;-70
2024/01/27 00:39:26;;;;;;;12.55;3.10;;;;;;;;;;687548;28;1373;-71
2024/01/27 00:39:46;;;;;;;12.07;3.97;;;;;;;;;;688698;28;1325;-70
2024/01/27 00:40:08;;;;;;;11.50;3.60;;;;;;;;;;686614;28;1456;-71
2024/01/27 00:40:28;;;;;;;8.95;3.30;;;;;;;;;;686787;28;4392;-70
2024/01/27 00:40:49;;;;;;;10.60;3.50;;;;;;;;;;687594;28;1393;-70
2024/01/27 00:41:12;;;;;;;12.83;3.90;;;;;;;;;;687418;28;1786;-69
2024/01/27 00:41:33;;;;;;;9.52;3.33;;;;;;;;;;687276;28;1283;-68
2024/01/27 00:41:55;;;;;;;11.45;3.70;;;;;;;;;;688579;28;1326;-75
2024/01/27 00:42:16;;;;;;;11.10;3.65;;;;;;;;;;683928;28;2517;-71
2024/01/27 00:42:36;;;;;;;10.52;3.58;;;;;;;;;;684732;28;1105;-70
2024/01/27 00:42:57;;;;;;;11.25;3.40;;;;;;;;;;685763;28;1240;-69
2024/01/27 00:43:17;;;;;;;11.27;3.30;;;;;;;;;;682834;28;4472;-71
2024/01/27 00:43:37;;;;;;;10.50;3.17;;;;;;;;;;685151;28;1275;-69
2024/01/27 00:43:58;;;;;;;10.55;3.10;;;;;;;;;;687061;28;1761;-68
2024/01/27 00:44:18;;;;;;;11.57;3.47;;;;;;;;;;688753;28;1049;-69
2024/01/27 00:44:39;;;;;;;11.95;3.47;;;;;;;;;;689354;28;1144;-70
2024/01/27 00:45:01;;;;;;;11.50;3.53;;;;;;;;;;686682;28;2387;-70
2024/01/27 00:45:26;;;;;;;9.60;3.35;;;;;;;;;;689079;28;1306;-68
2024/01/27 00:45:46;;;;;;;9.30;3.10;;;;;;;;;;687963;28;1329;-71
2024/01/27 00:46:06;;;;;;;11.02;3.55;;;;;;;;;;686881;28;1886;-71
2024/01/27 00:46:27;;;;;;;12.73;4.13;;;;;;;;;;687939;28;4350;-71
2024/01/27 00:46:47;;;;;;;11.48;4.22;;;;;;;;;;687920;28;1298;-71
2024/01/27 00:47:07;;;;;;;10.57;4.03;;;;;;;;;;686946;28;2265;-71
2024/01/27 00:47:28;;;;;;;10.60;4.00;;;;;;;;;;687793;28;1393;-72
2024/01/27 00:47:51;;;;;;;10.40;3.97;;;;;;;;;;687485;28;1330;-69
2024/01/27 00:48:11;;;;;;;12.05;3.90;;;;;;;;;;687454;28;2333;-71
2024/01/27 00:48:32;;;;;;;14.43;4.05;;;;;;;;;;687587;28;1228;-70
2024/01/27 00:48:52;;;;;;;12.00;4.63;;;;;;;;;;687072;28;1481;-71
2024/01/27 00:49:13;;;;;;;12.65;4.70;;;;;;;;;;684853;28;4423;-68
2024/01/27 00:49:33;;;;;;;13.60;4.90;;;;;;;;;;689130;28;1334;-69
2024/01/27 00:49:54;;;;;;;11.48;4.95;;;;;;;;;;687068;28;790;-72
2024/01/27 00:50:14;;;;;;;8.60;3.90;;;;;;;;;;686028;28;3395;-68
2024/01/27 00:50:35;;;;;;;10.97;4.43;;;;;;;;;;687533;28;6340;-71
2024/01/27 00:50:55;;;;;;;11.30;4.38;;;;;;;;;;689150;28;1334;-71
2024/01/27 00:51:16;;;;;;;11.30;4.50;;;;;;;;;;683450;28;1484;-70
2024/01/27 00:51:36;;;;;;;11.43;4.33;;;;;;;;;;685080;28;1279;-71
2024/01/27 00:51:56;;;;;;;11.73;3.85;;;;;;;;;;685797;28;1322;-71
2024/01/27 00:52:17;;;;;;;10.80;3.80;;;;;;;;;;683921;28;4533;-72
2024/01/27 00:52:37;;;;;;;10.80;3.93;;;;;;;;;;685558;28;1252;-68
2024/01/27 00:52:58;;;;;;;12.87;4.37;;;;;;;;;;685729;28;1201;-68
2024/01/27 00:53:18;;;;;;;10.03;4.23;;;;;;;;;;687237;28;1274;-71
2024/01/27 00:53:39;;;;;;;12.00;4.20;;;;;;;;;;688366;28;1278;-71
2024/01/27 00:53:59;;;;;;;12.20;4.50;;;;;;;;;;684036;28;2170;-71
2024/01/27 00:54:20;;;;;;;11.23;4.35;;;;;;;;;;687183;28;1242;-70
2024/01/27 00:54:40;;;;;;;10.37;4.27;;;;;;;;;;688278;28;1223;-71
2024/01/27 00:55:00;;;;;;;12.27;5.13;;;;;;;;;;686495;28;1837;-70
2024/01/27 00:55:21;;;;;;;12.70;5.40;;;;;;;;;;686616;28;4414;-70
2024/01/27 00:55:42;;;;;;;11.47;5.03;;;;;;;;;;687384;28;1111;-71
2024/01/27 00:56:02;;;;;;;12.25;5.43;;;;;;;;;;686957;28;2303;-71
2024/01/27 00:56:23;;;;;;;12.50;4.77;;;;;;;;;;688292;28;1278;-70
2024/01/27 00:56:43;;;;;;;14.10;4.85;;;;;;;;;;688669;28;1244;-71
2024/01/27 00:57:04;;;;;;;12.37;5.03;;;;;;;;;;686393;28;1906;-71
2024/01/27 00:57:24;;;;;;;12.48;4.90;;;;;;;;;;687778;28;1266;-72
2024/01/27 00:57:45;;;;;;;15.27;5.23;;;;;;;;;;687418;28;873;-70
2024/01/27 00:58:06;;;;;;;14.00;5.07;;;;;;;;;;686550;28;1832;-71
2024/01/27 00:58:27;;;;;;;13.70;5.45;;;;;;;;;;686737;28;4301;-70
2024/01/27 00:58:47;;;;;;;14.70;5.20;;;;;;;;;;685071;28;1442;-71
2024/01/27 00:59:07;;;;;;;12.83;4.93;;;;;;;;;;683687;28;2727;-71
2024/01/27 00:59:28;;;;;;;13.38;4.85;;;;;;;;;;684565;28;1259;-71
2024/01/27 00:59:48;;;;;;;13.70;4.93;;;;;;;;;;684336;28;1390;-68
2024/01/27 01:00:10;;;;;;;11.57;4.80;;;;;;;;;;683329;28;1830;-68
2024/01/27 01:00:30;;;;;;;11.13;4.63;;;;;;;;;;685035;28;1260;-69
2024/01/27 01:00:50;;;;;;;11.13;4.77;;;;;;;;;;687302;28;1282;-69
2024/01/27 01:01:10;;;;;;;10.60;5.03;;;;;;;;;;686790;28;1815;-70
2024/01/27 01:01:31;;;;;;;9.50;4.83;;;;;;;;;;689362;28;4363;-69
2024/01/27 01:01:51;;;;;;;11.47;4.40;;;;;;;;;;690024;28;1211;-69
2024/01/27 01:02:11;;;;;;;12.27;4.30;;;;;;;;;;689542;28;2680;-70
2024/01/27 01:02:31;;;;;;;11.23;3.90;;;;;;;;;;691235;28;1421;-69
2024/01/27 01:02:52;;;;;;;11.68;4.43;;;;;;;;;;693003;28;1481;-68
2024/01/27 01:03:12;;;;;;;12.90;4.53;;;;;;;;;;690745;28;1775;-69
2024/01/27 01:03:32;;;;;;;10.83;4.40;;;;;;;;;;691330;28;1318;-69
2024/01/27 01:03:52;;;;;;;10.70;4.20;;;;;;;;;;692267;28;1262;-69
2024/01/27 01:04:13;;;;;;;11.03;3.93;;;;;;;;;;691016;28;4313;-68
2024/01/27 01:04:33;;;;;;;12.43;4.10;;;;;;;;;;692095;28;1306;-70
2024/01/27 01:04:53;;;;;;;10.60;4.03;;;;;;;;;;687506;28;1348;-70
2024/01/27 01:05:14;;;;;;;12.60;4.07;;;;;;;;;;687290;28;1140;-69
2024/01/27 01:05:34;;;;;;;11.80;4.10;;;;;;;;;;687075;28;1095;-70
2024/01/27 01:05:54;;;;;;;11.07;4.00;;;;;;;;;;687833;28;905;-70
2024/01/27 01:06:14;;;;;;;11.80;4.13;;;;;;;;;;686638;28;2792;-71
2024/01/27 01:06:35;;;;;;;11.23;3.73;;;;;;;;;;687401;28;1262;-69
2024/01/27 01:06:55;;;;;;;11.20;3.67;;;;;;;;;;687651;28;1294;-70
2024/01/27 01:07:16;;;;;;;14.00;3.90;;;;;;;;;;686323;28;4390;-68
2024/01/27 01:07:36;;;;;;;11.02;3.78;;;;;;;;;;687462;28;1203;-68
2024/01/27 01:07:56;;;;;;;10.40;3.93;;;;;;;;;;687603;28;1266;-68
2024/01/27 01:08:16;;;;;;;11.03;3.70;;;;;;;;;;686616;28;1151;-69
2024/01/27 01:08:37;;;;;;;12.37;3.83;;;;;;;;;;688517;28;1259;-69
2024/01/27 01:08:57;;;;;;;11.77;3.80;;;;;;;;;;687657;28;1322;-70
2024/01/27 01:09:17;;;;;;;10.83;3.73;;;;;;;;;;686969;28;1525;-70
2024/01/27 01:09:37;;;;;;;11.07;3.60;;;;;;;;;;688443;28;1251;-70
2024/01/27 01:09:58;;;;;;;11.63;3.90;;;;;;;;;;686882;28;1216;-69
2024/01/27 01:10:18;;;;;;;13.00;3.73;;;;;;;;;;686400;28;4324;-69
2024/01/27 01:10:39;;;;;;;12.40;3.80;;;;;;;;;;689747;28;1254;-70
2024/01/27 01:10:59;;;;;;;11.63;4.10;;;;;;;;;;688582;28;1286;-67
2024/01/27 01:11:19;;;;;;;10.95;3.80;;;;;;;;;;689834;28;1226;-68
2024/01/27 01:11:40;;;;;;;9.37;3.73;;;;;;;;;;689899;28;1380;-68
2024/01/27 01:12:00;;;;;;;9.70;3.77;;;;;;;;;;688007;28;1282;-69
2024/01/27 01:12:20;;;;;;;9.45;3.30;;;;;;;;;;688814;28;1195;-69
2024/01/27 01:12:40;;;;;;;9.63;3.60;;;;;;;;;;689522;28;1266;-70
2024/01/27 01:13:01;;;;;;;9.67;3.80;;;;;;;;;;687500;28;1818;-70
2024/01/27 01:13:21;;;;;;;9.50;3.90;;;;;;;;;;688848;28;4450;-69
2024/01/27 01:13:41;;;;;;;8.90;3.63;;;;;;;;;;689792;28;1072;-70
2024/01/27 01:14:01;;;;;;;9.30;3.40;;;;;;;;;;688947;28;2347;-68
2024/01/27 01:14:22;;;;;;;8.35;3.47;;;;;;;;;;687548;28;1273;-70
2024/01/27 01:14:45;;;;;;;9.40;3.50;;;;;;;;;;688847;28;1227;-70
2024/01/27 01:15:06;;;;;;;9.60;3.66;;;;;;;;;;685946;28;1939;-69
2024/01/27 01:15:26;;;;;;;8.60;3.60;;;;;;;;;;689033;28;1258;-70
2024/01/27 01:15:46;;;;;;;11.98;4.07;;;;;;;;;;691255;28;1463;-70
2024/01/27 01:16:08;;;;;;;12.03;3.77;;;;;;;;;;688525;28;1557;-70
2024/01/27 01:16:28;;;;;;;8.05;3.42;;;;;;;;;;687000;28;4366;-69
2024/01/27 01:16:48;;;;;;;9.63;3.65;;;;;;;;;;685729;28;1965;-70
2024/01/27 01:17:08;;;;;;;9.37;3.30;;;;;;;;;;683920;28;2200;-67
2024/01/27 01:17:28;;;;;;;10.70;3.47;;;;;;;;;;684888;28;1346;-70
2024/01/27 01:17:49;;;;;;;11.40;3.93;;;;;;;;;;684793;28;1326;-69
2024/01/27 01:18:09;;;;;;;9.90;4.03;;;;;;;;;;684223;28;1741;-69
2024/01/27 01:18:29;;;;;;;11.03;4.07;;;;;;;;;;684279;28;1180;-70
2024/01/27 01:18:49;;;;;;;10.87;3.70;;;;;;;;;;685201;28;1232;-69
2024/01/27 01:19:10;;;;;;;9.60;3.97;;;;;;;;;;684219;28;1959;-69
2024/01/27 01:19:30;;;;;;;11.40;4.07;;;;;;;;;;686734;28;4529;-69
2024/01/27 01:19:50;;;;;;;11.10;3.87;;;;;;;;;;687570;28;1219;-70
2024/01/27 01:20:11;;;;;;;11.02;3.95;;;;;;;;;;686889;28;1494;-69
2024/01/27 01:20:32;;;;;;;9.47;3.70;;;;;;;;;;686950;28;1409;-68
2024/01/27 01:20:52;;;;;;;9.93;3.60;;;;;;;;;;686928;28;1591;-70
2024/01/27 01:21:13;;;;;;;9.30;3.67;;;;;;;;;;685730;28;1792;-70
2024/01/27 01:21:33;;;;;;;9.93;3.57;;;;;;;;;;687244;28;1263;-70
2024/01/27 01:21:53;;;;;;;9.35;3.60;;;;;;;;;;687915;28;1231;-69
2024/01/27 01:22:13;;;;;;;9.47;3.63;;;;;;;;;;686398;28;4480;-70
2024/01/27 01:22:34;;;;;;;11.20;3.80;;;;;;;;;;686787;28;1289;-71
2024/01/27 01:22:54;;;;;;;9.95;3.63;;;;;;;;;;687857;28;1229;-70
2024/01/27 01:23:14;;;;;;;11.80;4.20;;;;;;;;;;686342;28;2294;-69
2024/01/27 01:23:35;;;;;;;12.03;4.40;;;;;;;;;;686249;28;1353;-70
2024/01/27 01:23:55;;;;;;;11.85;3.97;;;;;;;;;;688057;28;1368;-71
2024/01/27 01:24:15;;;;;;;11.00;3.80;;;;;;;;;;686527;28;1766;-70
2024/01/27 01:24:35;;;;;;;11.93;4.20;;;;;;;;;;687237;28;1333;-69
2024/01/27 01:24:55;;;;;;;9.90;4.30;;;;;;;;;;687365;28;1254;-70
2024/01/27 01:25:16;;;;;;;11.37;4.47;;;;;;;;;;686514;28;4392;-70
2024/01/27 01:25:36;;;;;;;14.07;4.67;;;;;;;;;;688339;28;1239;-67
2024/01/27 01:25:56;;;;;;;11.85;4.13;;;;;;;;;;688030;28;1286;-69
2024/01/27 01:26:17;;;;;;;8.80;3.73;;;;;;;;;;686476;28;1693;-69
2024/01/27 01:26:37;;;;;;;8.87;3.57;;;;;;;;;;688252;28;1199;-69
2024/01/27 01:26:57;;;;;;;9.63;3.58;;;;;;;;;;687539;28;1258;-68
2024/01/27 01:27:18;;;;;;;11.73;4.17;;;;;;;;;;687022;28;2319;-69
2024/01/27 01:27:39;;;;;;;12.52;3.88;;;;;;;;;;686417;28;2040;-70
2024/01/27 01:27:59;;;;;;;10.80;4.05;;;;;;;;;;688107;28;7044;-70
2024/01/27 01:28:19;;;;;;;14.03;4.00;;;;;;;;;;686785;28;4541;-69
2024/01/27 01:28:39;;;;;;;13.57;3.90;;;;;;;;;;687590;28;1282;-67
2024/01/27 01:29:00;;;;;;;8.88;3.47;;;;;;;;;;687361;28;1214;-69
2024/01/27 01:29:21;;;;;;;10.57;3.67;;;;;;;;;;686053;28;1322;-71
2024/01/27 01:29:42;;;;;;;10.00;4.15;;;;;;;;;;687503;28;1234;-69
2024/01/27 01:30:02;;;;;;;10.33;3.70;;;;;;;;;;687427;28;1290;-69
2024/01/27 01:30:22;;;;;;;10.45;3.60;;;;;;;;;;687261;28;1258;-71
2024/01/27 01:30:43;;;;;;;9.97;3.97;;;;;;;;;;688005;28;1274;-71
2024/01/27 01:31:06;;;;;;;10.10;3.80;;;;;;;;;;686581;28;2394;-70
2024/01/27 01:31:26;;;;;;;9.20;3.53;;;;;;;;;;686846;28;4549;-70
2024/01/27 01:31:46;;;;;;;10.97;3.97;;;;;;;;;;688226;28;1203;-70
2024/01/27 01:32:06;;;;;;;14.23;4.33;;;;;;;;;;686209;28;2270;-70
2024/01/27 01:32:27;;;;;;;12.40;4.10;;;;;;;;;;689411;28;1211;-69
2024/01/27 01:32:47;;;;;;;10.30;3.92;;;;;;;;;;688350;28;1262;-70
2024/01/27 01:33:07;;;;;;;8.77;3.77;;;;;;;;;;685856;28;2408;-70
2024/01/27 01:33:27;;;;;;;8.77;3.47;;;;;;;;;;688850;28;1376;-69
2024/01/27 01:33:48;;;;;;;8.05;3.55;;;;;;;;;;687908;28;1397;-69
2024/01/27 01:34:09;;;;;;;8.77;3.40;;;;;;;;;;687212;28;1723;-71
2024/01/27 01:34:29;;;;;;;9.13;3.87;;;;;;;;;;687492;28;4459;-69
2024/01/27 01:34:49;;;;;;;9.17;3.80;;;;;;;;;;687770;28;1203;-70
2024/01/27 01:35:12;;;;;;;9.97;3.90;;;;;;;;;;685781;28;2423;-71
2024/01/27 01:35:32;;;;;;;11.25;3.72;;;;;;;;;;687643;28;1515;-69
2024/01/27 01:35:53;;;;;;;10.17;3.60;;;;;;;;;;687111;28;1349;-69
2024/01/27 01:36:13;;;;;;;8.00;3.75;;;;;;;;;;685994;28;2343;-70
2024/01/27 01:36:33;;;;;;;9.70;3.87;;;;;;;;;;688553;28;1366;-68
2024/01/27 01:36:54;;;;;;;10.40;3.80;;;;;;;;;;687704;28;1420;-70
2024/01/27 01:37:14;;;;;;;8.50;3.72;;;;;;;;;;685133;28;4696;-69
2024/01/27 01:37:34;;;;;;;9.20;3.80;;;;;;;;;;685406;28;1232;-70
2024/01/27 01:37:55;;;;;;;11.57;4.00;;;;;;;;;;686611;28;1290;-70
2024/01/27 01:38:15;;;;;;;10.63;4.07;;;;;;;;;;683364;28;2902;-70
2024/01/27 01:38:35;;;;;;;8.77;3.57;;;;;;;;;;684982;28;1299;-69
2024/01/27 01:38:55;;;;;;;10.83;3.43;;;;;;;;;;685854;28;1209;-70
2024/01/27 01:39:16;;;;;;;10.88;3.70;;;;;;;;;;683030;28;2308;-68
2024/01/27 01:39:36;;;;;;;11.17;3.93;;;;;;;;;;685390;28;1366;-69
2024/01/27 01:39:57;;;;;;;10.67;3.93;;;;;;;;;;685222;28;1338;-69
2024/01/27 01:40:17;;;;;;;10.93;3.80;;;;;;;;;;683309;28;4392;-69
2024/01/27 01:40:37;;;;;;;9.85;3.63;;;;;;;;;;687369;28;1293;-68
2024/01/27 01:40:58;;;;;;;8.80;3.60;;;;;;;;;;686910;28;1231;-67
2024/01/27 01:41:18;;;;;;;8.83;3.70;;;;;;;;;;685610;28;1741;-69
2024/01/27 01:41:38;;;;;;;7.72;3.70;;;;;;;;;;687710;28;1195;-70
2024/01/27 01:41:59;;;;;;;9.00;3.50;;;;;;;;;;688341;28;1390;-69
2024/01/27 01:42:23;;;;;;;8.53;3.70;;;;;;;;;;685239;28;2304;-69
2024/01/27 01:42:43;;;;;;;9.02;3.35;;;;;;;;;;687188;28;1282;-70
2024/01/27 01:43:08;;;;;;;9.53;3.77;;;;;;;;;;685804;28;2365;-70
2024/01/27 01:43:29;;;;;;;12.18;3.78;;;;;;;;;;685811;28;4445;-68
2024/01/27 01:43:49;;;;;;;8.77;3.25;;;;;;;;;;688944;28;1215;-68
2024/01/27 01:44:09;;;;;;;9.33;3.30;;;;;;;;;;686196;28;1794;-70
2024/01/27 01:44:30;;;;;;;10.43;3.40;;;;;;;;;;687734;28;1243;-69
2024/01/27 01:44:51;;;;;;;11.25;3.60;;;;;;;;;;688487;28;1360;-70
2024/01/27 01:45:12;;;;;;;12.27;3.50;;;;;;;;;;686220;28;1825;-69
2024/01/27 01:45:33;;;;;;;12.05;3.45;;;;;;;;;;686545;28;1019;-70
2024/01/27 01:45:53;;;;;;;10.03;3.43;;;;;;;;;;686797;28;1299;-70
2024/01/27 01:46:13;;;;;;;8.38;3.40;;;;;;;;;;686843;28;4382;-70
2024/01/27 01:46:34;;;;;;;9.30;3.80;;;;;;;;;;685881;28;3804;-68
2024/01/27 01:46:54;;;;;;;12.20;3.90;;;;;;;;;;687128;28;6529;-68
2024/01/27 01:47:14;;;;;;;10.53;3.50;;;;;;;;;;689273;28;1787;-70
2024/01/27 01:47:35;;;;;;;9.80;3.33;;;;;;;;;;687214;28;1199;-69
2024/01/27 01:47:55;;;;;;;10.38;3.63;;;;;;;;;;687776;28;1298;-70
2024/01/27 01:48:15;;;;;;;9.33;3.30;;;;;;;;;;686989;28;2482;-70
2024/01/27 01:48:36;;;;;;;10.73;3.37;;;;;;;;;;689122;28;1203;-70
2024/01/27 01:48:56;;;;;;;11.20;3.70;;;;;;;;;;687612;28;1135;-70
2024/01/27 01:49:16;;;;;;;12.87;3.33;;;;;;;;;;686107;28;4538;-69
2024/01/27 01:49:37;;;;;;;13.37;3.40;;;;;;;;;;688122;28;1343;-70
2024/01/27 01:49:57;;;;;;;9.95;3.33;;;;;;;;;;687068;28;1275;-70
2024/01/27 01:50:18;;;;;;;9.75;3.35;;;;;;;;;;686822;28;1448;-68
2024/01/27 01:50:38;;;;;;;9.37;3.83;;;;;;;;;;687474;28;1223;-68
2024/01/27 01:50:59;;;;;;;9.77;3.72;;;;;;;;;;686647;28;1243;-71
2024/01/27 01:51:20;;;;;;;10.70;3.70;;;;;;;;;;686359;28;2407;-69
2024/01/27 01:51:41;;;;;;;12.20;3.80;;;;;;;;;;688217;28;1293;-68
2024/01/27 01:52:01;;;;;;;10.40;3.50;;;;;;;;;;688335;28;1144;-69
2024/01/27 01:52:21;;;;;;;7.73;3.23;;;;;;;;;;687009;28;4617;-70
2024/01/27 01:52:42;;;;;;;7.83;3.47;;;;;;;;;;687446;28;1121;-70
2024/01/27 01:53:03;;;;;;;8.75;3.75;;;;;;;;;;685773;28;2305;-68
2024/01/27 01:53:23;;;;;;;9.20;3.58;;;;;;;;;;687191;28;1168;-68
2024/01/27 01:53:45;;;;;;;8.07;3.30;;;;;;;;;;687407;28;1243;-70
2024/01/27 01:54:06;;;;;;;9.48;3.50;;;;;;;;;;686278;28;2330;-69
2024/01/27 01:54:27;;;;;;;9.13;3.70;;;;;;;;;;690115;28;972;-70
2024/01/27 01:54:48;;;;;;;7.78;3.30;;;;;;;;;;690206;28;1358;-70
2024/01/27 01:55:08;;;;;;;9.18;3.00;;;;;;;;;;688931;28;1413;-70
2024/01/27 01:55:33;;;;;;;10.52;3.30;;;;;;;;;;690791;28;4709;-69
2024/01/27 01:55:53;;;;;;;10.18;3.50;;;;;;;;;;687831;28;1337;-70
2024/01/27 01:56:14;;;;;;;9.43;3.40;;;;;;;;;;686036;28;1563;-70
2024/01/27 01:56:35;;;;;;;8.93;3.08;;;;;;;;;;687647;28;1290;-70
2024/01/27 01:56:57;;;;;;;8.50;3.00;;;;;;;;;;687907;28;1152;-71
2024/01/27 01:57:18;;;;;;;8.23;3.10;;;;;;;;;;686342;28;1910;-70
2024/01/27 01:57:38;;;;;;;8.33;3.23;;;;;;;;;;687800;28;1247;-70
2024/01/27 01:57:58;;;;;;;9.87;3.23;;;;;;;;;;687575;28;1239;-68
2024/01/27 01:58:18;;;;;;;9.97;3.30;;;;;;;;;;685500;28;4464;-70
2024/01/27 01:58:39;;;;;;;10.48;3.50;;;;;;;;;;687561;28;1243;-70
2024/01/27 01:58:59;;;;;;;10.77;3.60;;;;;;;;;;688223;28;1195;-70
2024/01/27 01:59:20;;;;;;;9.43;3.20;;;;;;;;;;683801;28;1595;-69
2024/01/27 01:59:41;;;;;;;9.10;3.47;;;;;;;;;;685188;28;1421;-69
2024/01/27 02:00:01;;;;;;;10.80;3.60;;;;;;;;;;684788;28;1160;-70
2024/01/27 02:00:21;;;;;;;8.57;3.53;;;;;;;;;;683250;28;1179;-71
2024/01/27 02:00:42;;;;;;;9.23;3.50;;;;;;;;;;684593;28;1310;-68
2024/01/27 02:01:03;;;;;;;8.98;3.33;;;;;;;;;;684230;28;1148;-67
2024/01/27 02:01:23;;;;;;;9.48;3.40;;;;;;;;;;686005;28;4855;-70
2024/01/27 02:01:44;;;;;;;9.77;3.13;;;;;;;;;;688551;28;1187;-71
2024/01/27 02:02:05;;;;;;;9.10;3.38;;;;;;;;;;685953;28;1699;-69
2024/01/27 02:02:25;;;;;;;9.40;3.25;;;;;;;;;;684251;28;1312;-70
2024/01/27 02:02:45;;;;;;;11.07;3.20;;;;;;;;;;686347;28;1252;-69
2024/01/27 02:03:10;;;;;;;9.73;3.20;;;;;;;;;;684779;28;1022;-71
2024/01/27 02:03:30;;;;;;;8.32;3.10;;;;;;;;;;686944;28;1318;-69
2024/01/27 02:03:53;;;;;;;9.23;3.20;;;;;;;;;;688966;28;1405;-69
2024/01/27 02:04:13;;;;;;;9.18;3.20;;;;;;;;;;688508;28;4559;-70
2024/01/27 02:04:43;;;;;;;7.68;3.28;;;;;;;;;;692209;28;1207;-70
2024/01/27 02:05:03;;;;;;;9.23;3.17;;;;;;;;;;690950;28;1251;-70
2024/01/27 02:05:23;;;;;;;10.60;3.30;;;;;;;;;;691711;28;1219;-70
2024/01/27 02:05:44;;;;;;;9.30;3.10;;;;;;;;;;691803;28;1344;-70
2024/01/27 02:06:04;;;;;;;9.13;3.20;;;;;;;;;;689034;28;2414;-70
2024/01/27 02:06:24;;;;;;;8.82;3.30;;;;;;;;;;686877;28;1326;-69